createdAt,value
2017-11-24T00:00:02.568Z,9.70
2017-11-24T00:02:30.219Z,9.70
2017-11-24T00:04:57.795Z,9.70
2017-11-24T00:07:25.397Z,9.70
2017-11-24T00:09:52.967Z,9.70
2017-11-24T00:12:20.534Z,9.80
2017-11-24T00:14:48.135Z,9.80
2017-11-24T00:17:15.706Z,9.80
2017-11-24T00:19:44.098Z,9.90
2017-11-24T00:22:12.443Z,10.00
2017-11-24T00:24:40.057Z,10.00
2017-11-24T00:27:08.358Z,10.10
2017-11-24T00:29:35.972Z,10.00
2017-11-24T00:32:04.286Z,10.10
2017-11-24T00:34:31.882Z,10.10
2017-11-24T00:37:05.077Z,10.10
2017-11-24T00:39:32.697Z,10.10
2017-11-24T00:42:00.299Z,10.10
2017-11-24T00:44:27.876Z,10.00
2017-11-24T00:46:55.446Z,9.90
2017-11-24T00:49:23.786Z,9.80
2017-11-24T00:51:51.358Z,9.80
2017-11-24T00:54:18.973Z,9.70
2017-11-24T00:56:46.557Z,9.60
2017-11-24T00:59:14.116Z,9.60
2017-11-24T01:01:41.703Z,9.50
2017-11-24T01:04:09.251Z,9.50
2017-11-24T01:06:36.804Z,9.40
2017-11-24T01:09:04.592Z,9.40
2017-11-24T01:11:32.158Z,9.40
2017-11-24T01:14:01.581Z,9.40
2017-11-24T01:16:29.184Z,9.40
2017-11-24T01:18:58.290Z,9.30
2017-11-24T01:21:25.860Z,9.40
2017-11-24T01:23:54.086Z,9.50
2017-11-24T01:26:22.443Z,9.60
2017-11-24T01:28:50.006Z,9.50
2017-11-24T01:31:17.609Z,9.60
2017-11-24T01:33:45.176Z,9.70
2017-11-24T01:36:12.819Z,9.70
2017-11-24T01:38:41.130Z,9.80
2017-11-24T01:41:08.716Z,9.80
2017-11-24T01:43:36.267Z,9.80
2017-11-24T01:46:03.871Z,9.90
2017-11-24T01:48:32.205Z,10.00
2017-11-24T01:50:59.780Z,10.00
2017-11-24T01:53:27.330Z,10.00
2017-11-24T01:55:54.948Z,10.10
2017-11-24T01:58:22.504Z,10.10
2017-11-24T02:00:50.060Z,10.20
2017-11-24T02:03:17.642Z,10.20
2017-11-24T02:05:45.227Z,10.20
2017-11-24T02:08:12.828Z,10.20
2017-11-24T02:10:41.212Z,10.30
2017-11-24T02:13:09.559Z,10.20
2017-11-24T02:15:37.119Z,10.20
2017-11-24T02:18:04.708Z,10.20
2017-11-24T02:20:33.027Z,10.20
2017-11-24T02:23:01.368Z,10.20
2017-11-24T02:25:29.703Z,10.20
2017-11-24T02:27:57.303Z,10.20
2017-11-24T02:30:24.845Z,10.20
2017-11-24T02:32:52.382Z,10.10
2017-11-24T02:35:19.964Z,10.10
2017-11-24T02:37:47.532Z,10.20
2017-11-24T02:40:15.087Z,10.10
2017-11-24T02:42:42.662Z,10.10
2017-11-24T02:45:10.298Z,10.20
2017-11-24T02:47:37.838Z,10.20
2017-11-24T02:50:05.429Z,10.20
2017-11-24T02:52:32.981Z,10.30
2017-11-24T02:55:00.558Z,10.30
2017-11-24T02:57:28.226Z,10.30
2017-11-24T02:59:55.792Z,10.30
2017-11-24T03:02:24.151Z,10.20
2017-11-24T03:04:51.747Z,10.20
2017-11-24T03:07:20.178Z,10.20
2017-11-24T03:09:47.729Z,10.20
2017-11-24T03:12:15.311Z,10.20
2017-11-24T03:14:42.900Z,10.10
2017-11-24T03:17:11.237Z,10.00
2017-11-24T03:19:38.827Z,10.00
2017-11-24T03:22:06.445Z,9.90
2017-11-24T03:24:34.055Z,9.90
2017-11-24T03:27:01.607Z,9.80
2017-11-24T03:29:29.448Z,9.70
2017-11-24T03:31:57.008Z,9.70
2017-11-24T03:34:24.599Z,9.60
2017-11-24T03:36:52.208Z,9.50
2017-11-24T03:39:19.770Z,9.40
2017-11-24T03:41:47.332Z,9.50
2017-11-24T03:44:15.723Z,9.40
2017-11-24T03:46:43.291Z,9.40
2017-11-24T03:49:10.887Z,9.30
2017-11-24T03:51:38.455Z,9.30
2017-11-24T03:54:06.160Z,9.20
2017-11-24T03:56:33.799Z,9.20
2017-11-24T03:59:02.135Z,9.20
2017-11-24T04:01:29.705Z,9.20
2017-11-24T04:03:57.319Z,9.20
2017-11-24T04:06:24.892Z,9.20
2017-11-24T04:08:53.246Z,9.20
2017-11-24T04:11:20.894Z,9.20
2017-11-24T04:13:49.235Z,9.10
2017-11-24T04:16:16.832Z,9.10
2017-11-24T04:18:45.179Z,9.20
2017-11-24T04:21:12.752Z,9.20
2017-11-24T04:23:40.310Z,9.20
2017-11-24T04:26:07.923Z,9.20
2017-11-24T04:28:35.493Z,9.20
2017-11-24T04:31:03.092Z,9.10
2017-11-24T04:33:30.651Z,9.00
2017-11-24T04:35:58.230Z,9.00
2017-11-24T04:38:25.804Z,9.00
2017-11-24T04:40:54.124Z,9.00
2017-11-24T04:43:21.722Z,8.90
2017-11-24T04:45:49.270Z,9.00
2017-11-24T04:48:16.857Z,9.00
2017-11-24T04:50:45.209Z,8.90
2017-11-24T04:53:12.811Z,9.00
2017-11-24T04:55:40.384Z,8.90
2017-11-24T04:58:07.956Z,8.90
2017-11-24T05:00:35.522Z,8.80
2017-11-24T05:03:03.316Z,8.80
2017-11-24T05:05:30.908Z,8.80
2017-11-24T05:07:59.244Z,8.80
2017-11-24T05:10:26.919Z,8.80
2017-11-24T05:12:54.490Z,8.80
2017-11-24T05:15:23.941Z,8.90
2017-11-24T05:17:51.515Z,8.90
2017-11-24T05:20:19.096Z,8.90
2017-11-24T05:22:46.679Z,8.80
2017-11-24T05:25:14.638Z,8.80
2017-11-24T05:27:42.231Z,8.80
2017-11-24T05:30:10.592Z,8.80
2017-11-24T05:32:38.992Z,8.80
2017-11-24T05:35:07.399Z,8.70
2017-11-24T05:37:34.999Z,8.70
2017-11-24T05:40:02.603Z,8.70
2017-11-24T05:42:30.179Z,8.80
2017-11-24T05:44:57.765Z,8.70
2017-11-24T05:47:25.356Z,8.80
2017-11-24T05:49:52.947Z,8.80
2017-11-24T05:52:21.261Z,8.70
2017-11-24T05:54:48.843Z,8.70
2017-11-24T05:57:16.418Z,8.70
2017-11-24T05:59:44.016Z,8.80
2017-11-24T06:02:11.690Z,8.70
2017-11-24T06:04:39.286Z,8.70
2017-11-24T06:07:06.866Z,8.70
2017-11-24T06:09:34.446Z,8.70
2017-11-24T06:12:02.823Z,8.70
2017-11-24T06:14:31.171Z,8.70
2017-11-24T06:16:58.771Z,8.70
2017-11-24T06:19:26.343Z,8.70
2017-11-24T06:21:53.933Z,8.70
2017-11-24T06:24:21.541Z,8.70
2017-11-24T06:26:49.903Z,8.70
2017-11-24T06:29:17.556Z,8.70
2017-11-24T06:31:45.161Z,8.70
2017-11-24T06:34:13.832Z,8.60
2017-11-24T06:36:42.211Z,8.60
2017-11-24T06:39:10.556Z,8.50
2017-11-24T06:41:38.149Z,8.50
2017-11-24T06:44:05.706Z,8.50
2017-11-24T06:46:33.308Z,8.50
2017-11-24T06:49:00.887Z,8.40
2017-11-24T06:54:03.568Z,8.30
2017-11-24T06:56:31.154Z,8.30
2017-11-24T06:58:58.702Z,8.30
2017-11-24T07:01:27.027Z,8.40
2017-11-24T07:03:55.619Z,8.40
2017-11-24T07:06:24.172Z,8.40
2017-11-24T07:08:51.736Z,8.40
2017-11-24T07:11:19.290Z,8.40
2017-11-24T07:13:46.867Z,8.40
2017-11-24T07:16:14.443Z,8.50
2017-11-24T07:18:42.790Z,8.50
2017-11-24T07:21:10.467Z,8.50
2017-11-24T07:23:38.051Z,8.50
2017-11-24T07:26:06.448Z,8.50
2017-11-24T07:28:34.785Z,8.50
2017-11-24T07:31:03.223Z,8.50
2017-11-24T07:33:30.807Z,8.60
2017-11-24T07:35:59.088Z,8.60
2017-11-24T07:38:26.703Z,8.60
2017-11-24T07:40:54.323Z,8.60
2017-11-24T07:43:21.890Z,8.60
2017-11-24T07:45:49.532Z,8.60
2017-11-24T07:48:17.119Z,8.60
2017-11-24T07:50:44.673Z,8.50
2017-11-24T07:53:12.267Z,8.50
2017-11-24T07:55:40.623Z,8.50
2017-11-24T07:58:08.284Z,8.50
2017-11-24T08:00:35.834Z,8.50
2017-11-24T08:03:03.411Z,8.50
2017-11-24T08:05:31.011Z,8.40
2017-11-24T08:07:58.609Z,8.50
2017-11-24T08:10:26.187Z,8.50
2017-11-24T08:12:53.775Z,8.50
2017-11-24T08:15:22.139Z,8.50
2017-11-24T08:17:50.519Z,8.50
2017-11-24T08:20:18.890Z,8.50
2017-11-24T08:22:46.494Z,8.50
2017-11-24T08:25:14.160Z,8.50
2017-11-24T08:27:41.757Z,8.50
2017-11-24T08:30:09.337Z,8.50
2017-11-24T08:32:36.975Z,8.50
2017-11-24T08:35:04.584Z,8.50
2017-11-24T08:37:32.914Z,8.60
2017-11-24T08:40:00.609Z,8.60
2017-11-24T08:42:28.935Z,8.70
2017-11-24T08:44:56.570Z,8.70
2017-11-24T08:47:29.660Z,8.70
2017-11-24T08:49:58.027Z,8.80
2017-11-24T08:52:26.353Z,8.90
2017-11-24T08:54:53.939Z,8.80
2017-11-24T08:57:21.522Z,8.90
2017-11-24T08:59:49.906Z,8.90
2017-11-24T09:02:18.239Z,9.00
2017-11-24T09:04:45.835Z,8.90
2017-11-24T09:07:13.397Z,9.00
2017-11-24T09:09:41.023Z,9.10
2017-11-24T09:12:08.636Z,9.10
2017-11-24T09:14:37.061Z,9.20
2017-11-24T09:17:04.661Z,9.10
2017-11-24T09:19:32.236Z,9.10
2017-11-24T09:22:00.623Z,9.20
2017-11-24T09:24:29.010Z,9.20
2017-11-24T09:26:56.586Z,9.10
2017-11-24T09:29:24.159Z,9.20
2017-11-24T09:31:51.753Z,9.20
2017-11-24T09:34:19.335Z,9.20
2017-11-24T09:36:47.691Z,9.20
2017-11-24T09:39:15.268Z,9.10
2017-11-24T09:41:42.837Z,9.20
2017-11-24T09:44:11.196Z,9.10
2017-11-24T09:46:38.767Z,9.10
2017-11-24T09:49:06.355Z,9.00
2017-11-24T09:51:33.939Z,9.00
2017-11-24T09:56:36.271Z,9.00
2017-11-24T09:59:03.842Z,9.00
2017-11-24T10:01:32.178Z,9.00
2017-11-24T10:04:00.539Z,9.00
2017-11-24T10:06:28.083Z,8.90
2017-11-24T10:08:55.680Z,9.00
2017-11-24T10:11:23.261Z,8.90
2017-11-24T10:13:50.971Z,8.90
2017-11-24T10:16:18.531Z,8.80
2017-11-24T10:18:46.096Z,8.90
2017-11-24T10:21:19.315Z,8.90
2017-11-24T10:23:46.987Z,8.90
2017-11-24T10:26:14.560Z,8.90
2017-11-24T10:28:42.122Z,8.90
2017-11-24T10:31:09.795Z,8.90
2017-11-24T10:33:37.367Z,8.90
2017-11-24T10:36:04.946Z,9.00
2017-11-24T10:38:33.294Z,9.10
2017-11-24T10:41:00.874Z,9.10
2017-11-24T10:43:29.208Z,9.00
2017-11-24T10:45:56.787Z,9.00
2017-11-24T10:48:24.379Z,9.00
2017-11-24T10:50:52.747Z,8.90
2017-11-24T10:53:20.319Z,8.90
2017-11-24T10:55:48.682Z,8.90
2017-11-24T10:58:16.265Z,8.90
2017-11-24T11:00:44.701Z,9.00
2017-11-24T11:03:12.265Z,8.90
2017-11-24T11:05:39.874Z,8.90
2017-11-24T11:08:08.195Z,9.00
2017-11-24T11:10:35.782Z,9.00
2017-11-24T11:13:03.381Z,9.00
2017-11-24T11:15:30.957Z,9.00
2017-11-24T11:17:58.526Z,9.00
2017-11-24T11:20:26.098Z,9.10
2017-11-24T11:22:53.742Z,9.10
2017-11-24T11:25:21.353Z,9.00
2017-11-24T11:27:48.919Z,9.00
2017-11-24T11:30:16.488Z,9.00
2017-11-24T11:32:44.874Z,8.90
2017-11-24T11:35:13.194Z,8.90
2017-11-24T11:37:40.807Z,8.80
2017-11-24T11:40:08.358Z,8.90
2017-11-24T11:42:35.965Z,8.80
2017-11-24T11:45:03.543Z,8.80
2017-11-24T11:47:31.405Z,8.80
2017-11-24T11:49:58.967Z,8.70
2017-11-24T11:52:26.580Z,8.70
2017-11-24T11:57:28.835Z,8.80
2017-11-24T11:59:56.411Z,8.70
2017-11-24T12:02:23.999Z,8.70
2017-11-24T12:04:52.354Z,8.60
2017-11-24T12:07:19.970Z,8.60
2017-11-24T12:09:47.576Z,8.60
2017-11-24T12:12:15.179Z,8.60
2017-11-24T12:14:43.576Z,8.60
2017-11-24T12:17:11.202Z,8.60
2017-11-24T12:19:39.535Z,8.60
2017-11-24T12:22:07.125Z,8.60
2017-11-24T12:24:34.737Z,8.70
2017-11-24T12:27:02.326Z,8.70
2017-11-24T12:29:29.929Z,8.70
2017-11-24T12:31:58.279Z,8.80
2017-11-24T12:34:25.872Z,8.80
2017-11-24T12:36:54.225Z,8.90
2017-11-24T12:39:21.785Z,8.90
2017-11-24T12:41:49.376Z,8.80
2017-11-24T12:44:17.704Z,8.80
2017-11-24T12:46:45.322Z,8.80
2017-11-24T12:49:13.680Z,8.70
2017-11-24T12:51:41.261Z,8.70
2017-11-24T12:54:09.641Z,8.70
2017-11-24T12:56:37.276Z,8.70
2017-11-24T12:59:04.884Z,8.70
2017-11-24T13:01:33.251Z,8.70
2017-11-24T13:04:00.844Z,8.70
2017-11-24T13:06:28.428Z,8.80
2017-11-24T13:08:56.007Z,8.80
2017-11-24T13:11:24.421Z,8.70
2017-11-24T13:13:52.101Z,8.70
2017-11-24T13:16:19.806Z,8.70
2017-11-24T13:18:47.413Z,8.70
2017-11-24T13:21:15.005Z,8.70
2017-11-24T13:23:42.583Z,8.80
2017-11-24T13:26:10.183Z,8.80
2017-11-24T13:28:37.845Z,8.90
2017-11-24T13:31:05.452Z,8.80
2017-11-24T13:33:33.036Z,8.90
2017-11-24T13:36:00.674Z,8.80
2017-11-24T13:38:28.268Z,8.70
2017-11-24T13:40:55.863Z,8.70
2017-11-24T13:43:23.440Z,8.60
2017-11-24T13:45:51.139Z,8.50
2017-11-24T13:48:18.740Z,8.40
2017-11-24T13:50:46.335Z,8.40
2017-11-24T13:53:13.959Z,8.40
2017-11-24T13:55:41.574Z,8.50
2017-11-24T13:58:09.180Z,8.50
2017-11-24T14:00:37.621Z,8.50
2017-11-24T14:03:05.644Z,8.50
2017-11-24T14:05:33.232Z,8.50
2017-11-24T14:08:00.828Z,8.60
2017-11-24T14:10:28.449Z,8.50
2017-11-24T14:12:56.035Z,8.50
2017-11-24T14:15:23.670Z,8.40
2017-11-24T14:17:51.305Z,8.30
2017-11-24T14:20:18.929Z,8.20
2017-11-24T14:22:46.559Z,8.30
2017-11-24T14:25:14.609Z,8.30
2017-11-24T14:27:42.184Z,8.30
2017-11-24T14:30:10.563Z,8.40
2017-11-24T14:32:38.182Z,8.40
2017-11-24T14:35:05.772Z,8.40
2017-11-24T14:37:33.372Z,8.40
2017-11-24T14:40:00.956Z,8.30
2017-11-24T14:42:28.645Z,8.30
2017-11-24T14:44:57.894Z,8.30
2017-11-24T14:47:25.539Z,8.30
2017-11-24T14:49:53.137Z,8.30
2017-11-24T14:52:20.737Z,8.20
2017-11-24T14:54:49.091Z,8.20
2017-11-24T14:57:16.674Z,8.20
2017-11-24T14:59:44.963Z,8.10
2017-11-24T15:02:12.691Z,8.10
2017-11-24T15:04:40.307Z,8.10
2017-11-24T15:07:08.785Z,8.10
2017-11-24T15:09:36.486Z,8.10
2017-11-24T15:12:04.091Z,8.10
2017-11-24T15:14:31.720Z,8.10
2017-11-24T15:16:59.334Z,8.10
2017-11-24T15:19:26.935Z,8.10
2017-11-24T15:21:54.601Z,8.10
2017-11-24T15:24:22.205Z,8.10
2017-11-24T15:26:51.247Z,8.10
2017-11-24T15:29:17.474Z,8.10
2017-11-24T15:31:45.051Z,8.10
2017-11-24T15:34:12.661Z,8.10
2017-11-24T15:36:40.265Z,8.10
2017-11-24T15:39:07.852Z,8.10
2017-11-24T15:41:36.227Z,8.10
2017-11-24T15:44:04.599Z,8.10
2017-11-24T15:46:32.256Z,8.10
2017-11-24T15:48:59.845Z,8.10
2017-11-24T15:51:28.202Z,8.00
2017-11-24T15:53:55.827Z,8.00
2017-11-24T15:56:23.500Z,8.00
2017-11-24T15:58:51.087Z,8.00
2017-11-24T16:01:18.727Z,7.90
2017-11-24T16:03:46.302Z,7.90
2017-11-24T16:06:13.908Z,7.80
2017-11-24T16:08:41.512Z,7.70
2017-11-24T16:11:09.078Z,7.70
2017-11-24T16:13:36.687Z,7.80
2017-11-24T16:16:04.332Z,7.80
2017-11-24T16:18:32.786Z,7.80
2017-11-24T16:21:00.406Z,7.80
2017-11-24T16:23:28.021Z,7.80
2017-11-24T16:25:55.610Z,7.90
2017-11-24T16:28:23.968Z,7.90
2017-11-24T16:30:51.660Z,7.90
2017-11-24T16:33:19.235Z,8.00
2017-11-24T16:35:46.881Z,8.00
2017-11-24T16:38:14.520Z,7.90
2017-11-24T16:40:42.965Z,7.80
2017-11-24T16:45:48.960Z,7.80
2017-11-24T16:48:17.548Z,7.80
2017-11-24T16:50:45.123Z,7.70
2017-11-24T16:53:13.497Z,7.70
2017-11-24T16:55:41.288Z,7.70
2017-11-24T16:58:09.646Z,7.60
2017-11-24T17:00:38.019Z,7.60
2017-11-24T17:03:05.611Z,7.50
2017-11-24T17:05:33.236Z,7.50
2017-11-24T17:08:00.808Z,7.50
2017-11-24T17:10:28.373Z,7.40
2017-11-24T17:12:56.732Z,7.40
2017-11-24T17:15:25.195Z,7.40
2017-11-24T17:17:52.835Z,7.30
2017-11-24T17:20:20.411Z,7.30
2017-11-24T17:22:48.005Z,7.30
2017-11-24T17:25:15.591Z,7.30
2017-11-24T17:27:43.945Z,7.20
2017-11-24T17:30:11.519Z,7.20
2017-11-24T17:32:39.923Z,7.20
2017-11-24T17:35:07.510Z,7.20
2017-11-24T17:37:35.131Z,7.20
2017-11-24T17:40:03.476Z,7.30
2017-11-24T17:42:31.794Z,6.90
2017-11-24T17:45:00.179Z,7.20
2017-11-24T17:47:27.777Z,7.20
2017-11-24T17:49:55.376Z,7.20
2017-11-24T17:52:22.975Z,7.20
2017-11-24T17:54:50.572Z,7.20
2017-11-24T17:57:18.160Z,7.20
2017-11-24T17:59:45.719Z,7.20
2017-11-24T18:02:14.084Z,7.20
2017-11-24T18:04:41.653Z,7.20
2017-11-24T18:07:09.252Z,7.20
2017-11-24T18:09:36.914Z,7.10
2017-11-24T18:12:04.523Z,7.10
2017-11-24T18:14:32.106Z,7.10
2017-11-24T18:16:59.679Z,7.10
2017-11-24T18:19:29.924Z,6.70
2017-11-24T18:21:57.715Z,7.00
2017-11-24T18:24:25.512Z,7.00
2017-11-24T18:26:53.108Z,7.00
2017-11-24T18:29:21.505Z,6.90
2017-11-24T18:31:49.094Z,6.90
2017-11-24T18:34:16.670Z,6.90
2017-11-24T18:36:44.259Z,6.90
2017-11-24T18:39:12.652Z,6.90
2017-11-24T18:41:40.246Z,6.90
2017-11-24T18:44:07.842Z,6.90
2017-11-24T18:46:35.414Z,6.90
2017-11-24T18:49:03.809Z,6.80
2017-11-24T18:51:32.159Z,6.80
2017-11-24T19:07:00.546Z,6.60
2017-11-24T19:09:28.114Z,6.50
2017-11-24T19:11:56.475Z,6.60
2017-11-24T19:14:24.065Z,6.60
2017-11-24T19:16:51.675Z,6.60
2017-11-24T19:19:19.259Z,6.60
2017-11-24T19:21:46.866Z,6.70
2017-11-24T19:24:14.431Z,6.60
2017-11-24T19:26:42.040Z,6.60
2017-11-24T19:29:09.664Z,6.70
2017-11-24T19:31:37.274Z,6.60
2017-11-24T19:34:04.874Z,6.60
2017-11-24T19:36:32.512Z,6.60
2017-11-24T19:39:00.967Z,6.70
2017-11-24T19:41:28.586Z,6.70
2017-11-24T19:43:56.191Z,6.70
2017-11-24T19:46:23.813Z,6.70
2017-11-24T19:48:51.465Z,6.70
2017-11-24T19:51:19.207Z,6.70
2017-11-24T19:53:47.548Z,6.70
2017-11-24T19:56:15.150Z,6.70
2017-11-24T19:58:43.528Z,6.70
2017-11-24T20:01:12.160Z,6.70
2017-11-24T20:03:39.768Z,6.70
2017-11-24T20:06:08.209Z,6.70
2017-11-24T20:08:35.832Z,6.70
2017-11-24T20:11:03.507Z,6.70
2017-11-24T20:13:31.230Z,6.70
2017-11-24T20:15:59.611Z,6.60
2017-11-24T20:18:27.230Z,6.60
2017-11-24T20:20:54.860Z,6.60
2017-11-24T20:23:22.532Z,6.60
2017-11-24T20:25:50.201Z,6.60
2017-11-24T20:28:17.864Z,6.60
2017-11-24T20:30:45.546Z,6.60
2017-11-24T20:33:13.159Z,6.60
2017-11-24T20:35:41.614Z,6.40
2017-11-24T20:38:09.221Z,6.40
2017-11-24T20:40:36.811Z,6.40
2017-11-24T20:43:04.505Z,6.40
2017-11-24T20:45:32.227Z,6.30
2017-11-24T20:47:59.879Z,6.30
2017-11-24T20:50:27.471Z,6.30
2017-11-24T20:52:55.182Z,6.40
2017-11-24T20:55:22.861Z,6.30
2017-11-24T20:57:51.224Z,6.40
2017-11-24T21:00:19.656Z,6.40
2017-11-24T21:02:47.368Z,6.40
2017-11-24T21:05:15.701Z,6.50
2017-11-24T21:07:43.299Z,6.50
2017-11-24T21:10:11.679Z,6.50
2017-11-24T21:12:40.196Z,6.60
2017-11-24T21:15:07.866Z,6.50
2017-11-24T21:17:35.514Z,6.50
2017-11-24T21:20:03.105Z,6.60
2017-11-24T21:22:30.721Z,6.60
2017-11-24T21:24:59.108Z,6.60
2017-11-24T21:27:27.453Z,6.60
2017-11-24T21:29:55.081Z,6.60
2017-11-24T21:32:22.691Z,6.60
2017-11-24T21:34:51.035Z,6.60
2017-11-24T21:37:18.658Z,6.60
2017-11-24T21:39:46.366Z,6.60
2017-11-24T21:42:14.214Z,6.60
2017-11-24T21:44:41.882Z,6.70
2017-11-24T21:47:09.491Z,6.70
2017-11-24T21:49:37.839Z,6.70
2017-11-24T21:52:05.437Z,6.70
2017-11-24T21:54:33.784Z,6.80
2017-11-24T21:57:01.372Z,6.80
2017-11-24T21:59:29.770Z,6.80
2017-11-24T22:01:58.159Z,6.80
2017-11-24T22:04:25.787Z,6.80
2017-11-24T22:06:54.287Z,6.80
2017-11-24T22:09:22.633Z,6.80
2017-11-24T22:11:50.249Z,6.70
2017-11-24T22:14:17.876Z,6.80
2017-11-24T22:16:45.478Z,6.80
2017-11-24T22:19:15.036Z,6.80
2017-11-24T22:21:42.687Z,6.80
2017-11-24T22:24:10.263Z,6.90
2017-11-24T22:26:37.831Z,6.90
2017-11-24T22:29:06.168Z,6.90
2017-11-24T22:31:33.760Z,6.80
2017-11-24T22:34:01.347Z,6.90
2017-11-24T22:36:29.702Z,6.90
2017-11-24T22:38:57.292Z,6.90
2017-11-24T22:41:24.874Z,6.90
2017-11-24T22:43:52.445Z,7.00
2017-11-24T22:46:20.024Z,7.00
2017-11-24T22:48:47.608Z,7.00
2017-11-24T22:51:15.208Z,7.00
2017-11-24T22:53:42.783Z,7.00
2017-11-24T22:56:10.421Z,7.10
2017-11-24T22:58:38.100Z,7.10
2017-11-24T23:01:09.226Z,7.10
2017-11-24T23:03:37.598Z,7.20
2017-11-24T23:06:05.982Z,7.20
2017-11-24T23:08:34.859Z,7.10
2017-11-24T23:11:02.666Z,7.10
2017-11-24T23:13:30.389Z,7.10
2017-11-24T23:15:58.322Z,7.10
2017-11-24T23:18:25.975Z,7.10
2017-11-24T23:23:27.463Z,7.10
2017-11-24T23:25:55.082Z,7.20
2017-11-24T23:28:22.642Z,7.10
2017-11-24T23:30:50.253Z,7.10
2017-11-24T23:33:17.834Z,7.20
2017-11-24T23:35:46.179Z,7.20
2017-11-24T23:38:13.782Z,7.20
2017-11-24T23:40:42.137Z,7.20
2017-11-24T23:43:09.780Z,7.20
2017-11-24T23:45:37.348Z,7.20
2017-11-24T23:48:04.923Z,7.20
2017-11-24T23:50:32.583Z,7.20
2017-11-24T23:53:00.150Z,7.20
2017-11-24T23:55:27.748Z,7.20
2017-11-24T23:57:55.302Z,7.20
